Time;durP1;ratioP1;P1;durP2;ratioP2;P2;SDS_P1;SDS_P2;PMS_P1;PMS_P2;Temp;Humidity;BMP_temperature;BMP_pressure;BME280_temperature;BME280_humidity;BME280_pressure;Samples;Min_cycle;Max_cycle;Signal;HPM_P1;HPM_P2
2022/01/24 00:01:52;;;;;;;2.85;1.73;;;4.40;99.90;;;;;;5026724;28;20034;-61
2022/01/24 00:04:18;;;;;;;3.72;1.65;;;4.40;99.90;;;;;;5025359;28;20053;-58
2022/01/24 00:06:44;;;;;;;2.53;1.52;;;4.40;99.90;;;;;;5030833;28;20422;-61
2022/01/24 00:09:11;;;;;;;3.88;1.65;;;4.40;99.90;;;;;;5028978;28;20084;-60
2022/01/24 00:27:10;;;;;;;2.90;1.63;;;4.40;99.90;;;;;;5030783;28;20044;-59
2022/01/24 00:29:35;;;;;;;4.10;1.85;;;4.40;99.90;;;;;;5030872;28;20480;-60
2022/01/24 00:32:01;;;;;;;5.00;1.55;;;4.40;99.90;;;;;;5029891;28;20040;-60
2022/01/24 00:34:26;;;;;;;2.00;1.52;;;4.50;99.90;;;;;;5029477;28;20491;-61
2022/01/24 00:36:53;;;;;;;2.80;1.50;;;4.50;99.90;;;;;;5030993;28;20029;-59
2022/01/24 00:39:20;;;;;;;2.80;1.75;;;4.50;99.90;;;;;;5024849;28;20044;-60
2022/01/24 00:41:58;;;;;;;2.97;1.45;;;4.50;99.90;;;;;;5029295;28;20033;-60
2022/01/24 00:46:57;;;;;;;2.92;1.70;;;4.50;99.90;;;;;;5021751;28;20497;-59
2022/01/24 00:49:49;;;;;;;2.58;1.60;;;4.50;99.90;;;;;;5030733;28;20060;-61
2022/01/24 00:55:01;;;;;;;3.67;1.50;;;4.50;99.90;;;;;;5030230;28;20091;-59
2022/01/24 00:57:26;;;;;;;3.03;1.42;;;4.50;99.90;;;;;;5013004;28;20507;-60
2022/01/24 00:59:52;;;;;;;2.78;1.50;;;4.50;99.90;;;;;;5030256;28;20029;-59
2022/01/24 01:02:19;;;;;;;1.98;1.35;;;4.50;99.90;;;;;;5029033;28;20025;-60
2022/01/24 01:07:27;;;;;;;2.92;1.98;;;4.50;99.90;;;;;;5029314;28;20017;-61
2022/01/24 01:18:12;;;;;;;2.25;1.35;;;4.60;99.90;;;;;;5029992;28;20395;-60
2022/01/24 01:20:58;;;;;;;2.95;1.50;;;4.50;99.90;;;;;;5029820;28;20092;-60
2022/01/24 01:23:23;;;;;;;1.95;1.60;;;4.50;99.90;;;;;;5026422;28;20506;-59
2022/01/24 01:25:51;;;;;;;2.72;1.50;;;4.50;99.90;;;;;;5028270;28;20021;-60
2022/01/24 01:28:17;;;;;;;2.58;1.50;;;4.50;99.90;;;;;;5028855;28;20034;-61
2022/01/24 01:30:47;;;;;;;1.67;1.42;;;4.50;99.90;;;;;;5027607;28;20040;-60
2022/01/24 01:35:58;;;;;;;1.90;1.10;;;4.60;99.90;;;;;;5021322;28;20029;-60
2022/01/24 01:38:59;;;;;;;1.67;1.20;;;4.60;99.90;;;;;;5024364;28;20033;-59
2022/01/24 01:55:49;;;;;;;1.80;1.10;;;4.50;99.90;;;;;;5023409;28;20084;-57
2022/01/24 01:58:17;;;;;;;1.25;1.00;;;4.50;99.90;;;;;;5011380;28;20077;-59
2022/01/24 02:00:47;;;;;;;1.42;1.20;;;4.50;99.90;;;;;;5028909;28;20045;-57
2022/01/24 02:03:13;;;;;;;3.90;1.50;;;4.50;99.90;;;;;;5028993;28;20026;-59
2022/01/24 02:05:39;;;;;;;1.65;1.20;;;4.50;99.90;;;;;;5022989;28;20113;-60
2022/01/24 02:08:05;;;;;;;2.00;1.08;;;4.50;99.90;;;;;;5026320;28;20028;-59
2022/01/24 02:10:36;;;;;;;3.20;1.40;;;4.50;99.90;;;;;;5028710;28;20029;-59
2022/01/24 02:13:03;;;;;;;2.40;1.50;;;4.50;99.90;;;;;;5029026;28;20471;-60
2022/01/24 02:15:44;;;;;;;3.80;1.63;;;4.50;99.90;;;;;;5029229;28;20030;-59
2022/01/24 02:18:30;;;;;;;2.70;1.10;;;4.50;99.90;;;;;;5020955;28;20415;-60
2022/01/24 02:23:39;;;;;;;3.22;1.10;;;4.60;99.90;;;;;;5025257;28;20473;-59
2022/01/24 02:26:10;;;;;;;1.00;0.82;;;4.50;99.90;;;;;;5026192;28;20034;-60
2022/01/24 02:31:35;;;;;;;3.00;1.15;;;4.50;99.90;;;;;;5023133;28;20079;-60
2022/01/24 02:34:01;;;;;;;1.63;0.90;;;4.50;99.90;;;;;;5026186;28;20098;-60
2022/01/24 02:36:27;;;;;;;1.52;1.08;;;4.50;99.90;;;;;;5036578;28;20041;-60
2022/01/24 02:50:00;;;;;;;2.15;1.10;;;4.50;99.90;;;;;;4991257;28;20045;-58
2022/01/24 02:52:27;;;;;;;1.27;0.90;;;4.50;99.90;;;;;;5026930;28;20026;-60
2022/01/24 02:54:53;;;;;;;1.90;1.10;;;4.50;99.90;;;;;;5031356;28;20032;-60
2022/01/24 02:57:20;;;;;;;2.08;1.23;;;4.50;99.90;;;;;;5032370;28;20029;-60
2022/01/24 02:59:46;;;;;;;2.08;1.30;;;4.40;99.90;;;;;;5015876;28;20128;-61
2022/01/24 03:02:11;;;;;;;3.17;1.55;;;4.50;99.90;;;;;;5031194;28;20133;-59
2022/01/24 03:04:37;;;;;;;1.05;0.93;;;4.50;99.90;;;;;;5032058;28;20380;-59
2022/01/24 03:07:03;;;;;;;1.45;1.17;;;4.40;99.90;;;;;;5031791;28;20499;-60
2022/01/24 03:09:28;;;;;;;2.42;1.42;;;4.50;99.90;;;;;;5031315;28;20513;-59
2022/01/24 03:12:07;;;;;;;3.83;1.23;;;4.40;99.90;;;;;;5032276;28;20056;-59
2022/01/24 03:14:35;;;;;;;2.15;1.33;;;4.40;99.90;;;;;;5030118;28;20103;-60
2022/01/24 03:17:02;;;;;;;2.30;1.05;;;4.40;99.90;;;;;;5031918;28;20076;-59
2022/01/24 03:19:28;;;;;;;1.48;1.02;;;4.40;99.90;;;;;;5032759;28;20041;-58
2022/01/24 03:21:54;;;;;;;1.63;1.20;;;4.40;99.90;;;;;;5027832;28;20041;-59
2022/01/24 03:24:19;;;;;;;1.50;1.20;;;4.40;99.90;;;;;;5021284;28;20084;-59
2022/01/24 03:26:45;;;;;;;1.60;1.30;;;4.30;99.90;;;;;;5030471;28;20029;-59
2022/01/24 03:29:11;;;;;;;2.63;1.80;;;4.30;99.90;;;;;;5030951;28;20048;-60
2022/01/24 03:31:38;;;;;;;3.42;1.80;;;4.30;99.90;;;;;;5028425;28;20048;-59
2022/01/24 03:34:04;;;;;;;1.80;1.33;;;4.30;99.90;;;;;;5029683;28;20049;-58
2022/01/24 03:36:30;;;;;;;4.43;1.27;;;4.30;99.90;;;;;;5031066;28;20049;-59
2022/01/24 03:38:55;;;;;;;1.80;1.60;;;4.30;99.90;;;;;;5027538;28;20025;-60
2022/01/24 03:41:21;;;;;;;3.65;1.90;;;4.30;99.90;;;;;;5031148;28;20028;-58
2022/01/24 03:43:47;;;;;;;3.50;1.55;;;4.30;99.90;;;;;;5031105;28;20450;-60
2022/01/24 03:48:49;;;;;;;2.65;1.70;;;4.30;99.90;;;;;;5026518;28;20030;-60
2022/01/24 03:51:15;;;;;;;2.30;1.63;;;4.30;99.90;;;;;;5030456;28;20037;-58
2022/01/24 03:53:43;;;;;;;2.17;1.73;;;4.30;99.90;;;;;;5035771;28;20566;-60
2022/01/24 03:56:09;;;;;;;3.47;1.42;;;4.30;99.90;;;;;;5030783;28;20033;-57
2022/01/24 03:58:36;;;;;;;2.05;1.40;;;4.30;99.90;;;;;;5013866;28;20533;-57
2022/01/24 04:01:05;;;;;;;1.95;1.27;;;4.30;99.90;;;;;;5031029;28;20030;-60
2022/01/24 04:03:30;;;;;;;1.90;1.27;;;4.30;99.90;;;;;;5029676;28;20033;-59
2022/01/24 04:05:56;;;;;;;3.25;1.20;;;4.30;99.90;;;;;;5031488;28;20590;-60
2022/01/24 04:08:22;;;;;;;3.92;1.33;;;4.30;99.90;;;;;;5033833;28;20117;-59
2022/01/24 04:10:51;;;;;;;2.42;1.38;;;4.30;99.90;;;;;;5030945;28;20068;-59
2022/01/24 04:16:22;;;;;;;2.03;1.55;;;4.30;99.90;;;;;;5033066;28;20021;-60
2022/01/24 04:18:53;;;;;;;2.45;1.58;;;4.30;99.90;;;;;;5031526;28;20068;-60
2022/01/24 04:21:22;;;;;;;2.85;1.70;;;4.30;99.90;;;;;;5037872;28;20025;-59
2022/01/24 04:23:56;;;;;;;4.72;1.73;;;4.30;99.90;;;;;;5026287;28;20029;-58
2022/01/24 04:26:22;;;;;;;;;;;4.20;99.90;;;;;;5022379;28;20021;-60
2022/01/24 04:28:48;;;;;;;2.33;1.35;;;4.20;99.90;;;;;;5028443;28;19917;-58
2022/01/24 04:31:13;;;;;;;1.73;1.20;;;4.20;99.90;;;;;;5029839;28;20024;-58
2022/01/24 04:33:39;;;;;;;1.30;1.20;;;4.30;99.90;;;;;;5029871;28;20037;-60
2022/01/24 04:36:05;;;;;;;5.63;1.20;;;4.30;99.90;;;;;;5030416;28;20021;-59
2022/01/24 04:38:30;;;;;;;1.42;1.05;;;4.30;99.90;;;;;;5027135;28;20029;-59
2022/01/24 04:41:04;;;;;;;2.05;1.40;;;4.30;99.90;;;;;;5029052;28;20101;-60
2022/01/24 04:43:50;;;;;;;3.33;1.08;;;4.30;99.90;;;;;;5030470;28;20045;-60
2022/01/24 04:54:39;;;;;;;1.80;1.38;;;4.30;99.90;;;;;;5026110;28;20033;-60
2022/01/24 04:57:07;;;;;;;2.67;1.40;;;4.30;99.90;;;;;;5023343;28;20083;-59
2022/01/24 04:59:33;;;;;;;1.08;0.93;;;4.30;99.90;;;;;;5015947;28;20052;-58
2022/01/24 05:01:59;;;;;;;1.77;1.45;;;4.30;99.90;;;;;;5028665;28;20123;-60
2022/01/24 05:04:25;;;;;;;1.98;1.25;;;4.30;99.90;;;;;;5029525;28;20100;-60
2022/01/24 05:06:50;;;;;;;1.80;1.42;;;4.30;99.90;;;;;;5030127;28;20033;-60
2022/01/24 05:09:18;;;;;;;1.80;1.38;;;4.20;99.90;;;;;;5029185;28;20406;-60
2022/01/24 05:11:51;;;;;;;2.30;1.85;;;4.20;99.90;;;;;;5030127;28;20030;-60
2022/01/24 05:25:14;;;;;;;2.00;1.40;;;4.30;99.90;;;;;;5028546;28;20036;-61
2022/01/24 05:27:40;;;;;;;3.75;2.75;;;4.30;99.90;;;;;;5027624;28;20446;-59
2022/01/24 05:30:06;;;;;;;1.98;1.50;;;4.20;99.90;;;;;;5017738;28;20075;-60
2022/01/24 05:32:32;;;;;;;2.45;1.30;;;4.30;99.90;;;;;;5023157;28;20037;-59
2022/01/24 05:34:57;;;;;;;5.43;3.30;;;4.30;99.90;;;;;;5027779;28;20052;-59
2022/01/24 05:37:23;;;;;;;2.30;1.25;;;4.30;99.90;;;;;;5023694;28;20036;-59
2022/01/24 05:39:49;;;;;;;1.65;1.45;;;4.20;99.90;;;;;;5020882;28;20049;-59
2022/01/24 05:42:17;;;;;;;2.72;1.10;;;4.30;99.90;;;;;;5029255;28;20529;-59
2022/01/24 05:44:43;;;;;;;1.63;1.30;;;4.30;99.90;;;;;;5029406;28;20034;-59
2022/01/24 05:47:08;;;;;;;3.97;1.77;;;4.20;99.90;;;;;;5028491;28;20037;-60
2022/01/24 05:49:34;;;;;;;2.58;1.40;;;4.20;99.90;;;;;;5026274;28;20053;-60
2022/01/24 05:51:59;;;;;;;1.42;1.20;;;4.20;99.90;;;;;;5028328;28;20025;-59
2022/01/24 05:54:25;;;;;;;1.90;1.10;;;4.10;99.90;;;;;;5020921;28;20093;-60
2022/01/24 05:56:50;;;;;;;4.75;1.45;;;4.10;99.90;;;;;;5026181;28;20087;-59
2022/01/24 05:59:16;;;;;;;3.30;1.33;;;4.00;99.90;;;;;;5012992;28;20045;-60
2022/01/24 06:01:41;;;;;;;2.60;1.35;;;3.90;99.90;;;;;;5028413;28;20037;-60
2022/01/24 06:04:07;;;;;;;5.07;1.45;;;3.90;99.90;;;;;;5028726;28;20079;-59
2022/01/24 06:06:32;;;;;;;2.53;1.92;;;3.80;99.90;;;;;;5028806;28;20569;-59
2022/01/24 06:08:58;;;;;;;2.80;1.73;;;3.70;99.90;;;;;;5032010;28;20063;-59
2022/01/24 06:11:24;;;;;;;2.13;1.67;;;3.60;99.90;;;;;;5029600;28;20049;-60
2022/01/24 06:13:51;;;;;;;4.78;1.40;;;3.50;99.90;;;;;;5029009;28;20083;-59
2022/01/24 06:16:17;;;;;;;4.38;2.00;;;3.40;99.90;;;;;;5037835;28;20016;-60
2022/01/24 06:18:43;;;;;;;2.55;1.77;;;3.40;99.90;;;;;;5037559;28;20044;-60
2022/01/24 06:21:08;;;;;;;2.00;1.52;;;3.40;99.90;;;;;;5033016;28;20059;-59
2022/01/24 06:23:34;;;;;;;3.10;1.70;;;3.40;99.90;;;;;;5031359;28;20045;-60
2022/01/24 06:25:59;;;;;;;2.53;1.58;;;3.40;99.90;;;;;;5032827;28;20033;-60
2022/01/24 06:28:25;;;;;;;3.17;1.70;;;3.40;99.90;;;;;;5031360;28;20025;-60
2022/01/24 06:30:50;;;;;;;4.65;2.10;;;3.40;99.90;;;;;;5031134;28;20090;-60
2022/01/24 06:33:16;;;;;;;1.92;1.70;;;3.40;99.90;;;;;;5030469;28;20038;-59
2022/01/24 06:35:42;;;;;;;3.42;1.85;;;3.40;99.90;;;;;;5032106;28;20038;-60
2022/01/24 06:38:07;;;;;;;2.40;1.80;;;3.40;99.90;;;;;;5032151;28;20483;-59
2022/01/24 06:40:33;;;;;;;3.28;1.95;;;3.30;99.90;;;;;;5025271;28;20041;-60
2022/01/24 06:42:59;;;;;;;3.90;2.20;;;3.30;99.90;;;;;;5031135;28;20030;-60
2022/01/24 06:45:25;;;;;;;5.38;2.28;;;3.20;99.90;;;;;;5031587;28;20502;-57
2022/01/24 06:47:50;;;;;;;3.15;1.98;;;3.00;99.90;;;;;;5031951;28;20030;-60
2022/01/24 06:50:16;;;;;;;2.70;2.10;;;2.90;99.90;;;;;;5027935;28;20029;-60
2022/01/24 06:52:41;;;;;;;3.15;2.30;;;2.80;99.90;;;;;;5030457;28;20037;-60
2022/01/24 06:55:08;;;;;;;5.38;2.05;;;2.70;99.90;;;;;;5031827;28;20025;-60
2022/01/24 06:57:33;;;;;;;4.05;2.42;;;2.60;99.90;;;;;;5028218;28;20044;-59
2022/01/24 06:59:59;;;;;;;4.30;2.63;;;2.60;99.90;;;;;;5015507;28;20045;-60
2022/01/24 07:02:24;;;;;;;3.40;2.83;;;2.70;99.90;;;;;;5025932;28;20033;-60
2022/01/24 07:04:50;;;;;;;4.88;2.70;;;2.70;99.90;;;;;;5025895;28;20025;-60
2022/01/24 07:07:15;;;;;;;4.88;3.15;;;2.70;99.90;;;;;;5030433;28;20578;-59
2022/01/24 07:09:44;;;;;;;3.72;2.85;;;2.70;99.90;;;;;;5029031;28;20116;-60
2022/01/24 07:12:10;;;;;;;3.72;2.78;;;2.70;99.90;;;;;;5030628;28;20033;-60
2022/01/24 07:14:36;;;;;;;4.22;2.58;;;2.70;99.90;;;;;;5027708;28;20021;-60
2022/01/24 07:19:51;;;;;;;6.55;3.00;;;2.60;99.90;;;;;;5009127;28;20040;-60
2022/01/24 07:22:17;;;;;;;9.23;3.53;;;2.70;99.90;;;;;;5030980;28;20034;-62
2022/01/24 07:24:42;;;;;;;3.65;2.40;;;2.70;99.90;;;;;;5017776;28;20116;-60
2022/01/24 07:27:08;;;;;;;4.30;3.08;;;2.70;99.90;;;;;;5030126;28;20025;-60
2022/01/24 07:29:34;;;;;;;5.00;2.85;;;2.80;99.90;;;;;;5031148;28;20491;-59
2022/01/24 07:32:00;;;;;;;7.97;3.10;;;2.80;99.90;;;;;;5031744;28;20032;-59
2022/01/24 07:34:25;;;;;;;6.03;3.50;;;2.80;99.90;;;;;;5031511;28;20034;-59
2022/01/24 07:36:51;;;;;;;3.72;2.40;;;2.80;99.90;;;;;;5031758;28;20037;-59
2022/01/24 07:39:17;;;;;;;4.43;2.85;;;2.90;99.90;;;;;;5025765;28;20491;-60
2022/01/24 07:41:45;;;;;;;4.85;2.60;;;2.90;99.90;;;;;;5031611;28;20033;-60
2022/01/24 07:44:13;;;;;;;4.95;2.63;;;3.00;99.90;;;;;;5030511;28;20503;-60
2022/01/24 07:46:39;;;;;;;5.85;3.42;;;3.10;99.90;;;;;;5027929;28;20045;-60
2022/01/24 07:49:11;;;;;;;4.68;2.72;;;3.10;99.90;;;;;;5025482;28;20061;-60
2022/01/24 07:51:38;;;;;;;6.20;3.72;;;3.20;99.90;;;;;;5029652;28;20092;-59
2022/01/24 07:54:03;;;;;;;7.20;5.00;;;3.20;99.90;;;;;;5030523;28;20025;-60
2022/01/24 07:56:29;;;;;;;5.68;3.33;;;3.30;99.90;;;;;;5031535;28;20060;-60
2022/01/24 07:58:55;;;;;;;18.25;10.68;;;3.40;99.90;;;;;;5014059;28;20040;-58
2022/01/24 08:01:21;;;;;;;36.50;19.85;;;3.40;99.90;;;;;;5031614;28;20044;-60
2022/01/24 08:03:46;;;;;;;16.73;8.05;;;3.50;99.90;;;;;;5030486;28;20095;-60
2022/01/24 08:06:13;;;;;;;7.85;5.78;;;3.60;99.90;;;;;;5024711;28;20040;-59
2022/01/24 08:08:39;;;;;;;7.60;5.80;;;3.60;99.90;;;;;;5026807;28;20124;-58
2022/01/24 08:11:04;;;;;;;19.85;10.50;;;3.70;99.90;;;;;;5028878;28;20550;-58
2022/01/24 08:13:30;;;;;;;10.10;5.82;;;3.70;99.90;;;;;;5029789;28;20053;-59
2022/01/24 08:15:55;;;;;;;15.35;8.68;;;3.70;99.90;;;;;;5031096;28;20026;-60
2022/01/24 08:18:21;;;;;;;14.02;8.50;;;3.80;99.90;;;;;;5038879;28;20128;-60
2022/01/24 08:20:47;;;;;;;17.42;9.52;;;3.90;99.90;;;;;;5030664;28;20060;-59
2022/01/24 08:23:13;;;;;;;11.23;5.80;;;3.90;99.90;;;;;;5030456;28;20079;-60
2022/01/24 08:25:39;;;;;;;23.00;10.30;;;3.90;99.90;;;;;;5031003;28;20087;-60
2022/01/24 08:28:05;;;;;;;14.00;7.10;;;4.00;99.90;;;;;;5030419;28;20025;-61
2022/01/24 08:30:31;;;;;;;27.10;11.20;;;4.00;99.90;;;;;;5030029;28;20026;-59
2022/01/24 08:32:57;;;;;;;17.33;9.25;;;4.10;99.90;;;;;;5028893;28;20690;-60
2022/01/24 08:35:23;;;;;;;27.70;12.02;;;4.10;99.90;;;;;;5030183;28;20104;-60
2022/01/24 08:37:49;;;;;;;21.33;11.45;;;4.20;99.90;;;;;;5028472;28;20026;-60
2022/01/24 08:40:22;;;;;;;13.02;6.93;;;4.30;99.90;;;;;;5027735;28;20646;-60
2022/01/24 08:43:01;;;;;;;18.73;9.95;;;4.30;99.90;;;;;;5028303;28;20025;-60
2022/01/24 08:48:17;;;;;;;5.10;3.38;;;4.30;99.90;;;;;;5026667;28;20091;-61
2022/01/24 08:50:44;;;;;;;6.30;3.78;;;4.40;99.90;;;;;;5021682;28;20029;-59
2022/01/24 08:53:10;;;;;;;4.75;2.63;;;4.40;99.90;;;;;;5028225;28;20032;-60
2022/01/24 08:55:37;;;;;;;4.75;2.67;;;4.40;99.90;;;;;;5027626;28;20033;-59
2022/01/24 08:58:04;;;;;;;8.15;3.08;;;4.50;99.90;;;;;;5026825;28;20033;-60
2022/01/24 09:00:30;;;;;;;14.40;7.65;;;4.50;99.90;;;;;;5013247;28;20144;-60
2022/01/24 09:02:56;;;;;;;3.90;2.08;;;4.50;99.90;;;;;;5023552;28;20176;-60
2022/01/24 09:05:23;;;;;;;6.30;2.42;;;4.60;99.90;;;;;;5024699;28;20745;-60
2022/01/24 09:07:53;;;;;;;3.15;2.55;;;4.60;99.90;;;;;;5028130;28;20061;-60
2022/01/24 09:10:19;;;;;;;6.70;3.58;;;4.60;99.90;;;;;;5027985;28;20067;-59
2022/01/24 09:12:46;;;;;;;4.07;2.35;;;4.70;99.90;;;;;;5028487;28;20491;-60
2022/01/24 09:15:12;;;;;;;7.10;2.17;;;4.70;99.90;;;;;;5028953;28;20446;-60
2022/01/24 09:17:38;;;;;;;3.42;2.20;;;4.70;99.90;;;;;;5029389;28;20036;-59
2022/01/24 09:20:05;;;;;;;6.82;2.42;;;4.70;99.90;;;;;;5028447;28;20025;-61
2022/01/24 09:22:34;;;;;;;5.05;2.45;;;4.70;99.90;;;;;;5025087;28;20388;-61
2022/01/24 09:25:00;;;;;;;5.90;2.05;;;4.70;99.90;;;;;;5026096;28;20372;-60
2022/01/24 09:27:26;;;;;;;4.25;2.03;;;4.80;99.90;;;;;;5025797;28;20772;-61
2022/01/24 09:29:51;;;;;;;2.47;1.95;;;4.80;99.90;;;;;;5029218;28;20037;-59
2022/01/24 09:32:17;;;;;;;3.60;2.10;;;4.80;99.90;;;;;;5028634;28;20089;-60
2022/01/24 09:34:43;;;;;;;4.38;1.90;;;4.80;99.90;;;;;;5028570;28;20091;-60
2022/01/24 09:37:08;;;;;;;6.00;2.03;;;4.90;99.90;;;;;;5031050;28;20098;-60
2022/01/24 09:39:35;;;;;;;5.50;1.95;;;4.80;99.90;;;;;;5020026;28;20516;-60
2022/01/24 09:42:00;;;;;;;3.03;2.10;;;4.90;99.90;;;;;;5035432;28;20033;-59
2022/01/24 09:44:26;;;;;;;2.38;1.63;;;4.90;99.90;;;;;;5029229;28;20410;-60
2022/01/24 09:46:51;;;;;;;6.63;2.00;;;4.80;99.90;;;;;;5029598;28;20547;-59
2022/01/24 09:49:17;;;;;;;4.15;1.65;;;4.80;99.90;;;;;;5026097;28;20022;-59
2022/01/24 09:51:44;;;;;;;3.25;1.83;;;4.90;99.90;;;;;;5023686;28;20029;-60
2022/01/24 09:54:11;;;;;;;2.92;1.73;;;4.80;99.90;;;;;;5028378;28;20041;-61
2022/01/24 09:56:37;;;;;;;4.20;2.03;;;4.90;99.90;;;;;;5029216;28;20044;-59
2022/01/24 09:59:04;;;;;;;5.30;1.70;;;4.90;99.90;;;;;;5028880;28;20041;-59
2022/01/24 10:01:31;;;;;;;5.53;1.83;;;4.90;99.90;;;;;;5013628;28;20107;-59
2022/01/24 10:04:09;;;;;;;4.85;2.15;;;5.00;99.90;;;;;;5028795;28;20462;-60
2022/01/24 10:06:54;;;;;;;5.32;2.10;;;5.00;99.90;;;;;;5029193;28;20030;-61
2022/01/24 10:09:33;;;;;;;15.45;5.20;;;5.00;99.90;;;;;;5025693;28;20041;-59
2022/01/24 10:12:05;;;;;;;102.60;42.15;;;5.10;99.90;;;;;;5027130;28;20021;-60
2022/01/24 10:17:27;;;;;;;5.15;3.20;;;4.90;99.90;;;;;;5025461;28;20036;-60
2022/01/24 10:19:53;;;;;;;4.00;2.80;;;5.00;99.90;;;;;;5028617;28;20034;-59
2022/01/24 10:22:25;;;;;;;4.00;3.28;;;5.00;99.90;;;;;;5028989;28;20029;-61
2022/01/24 10:24:54;;;;;;;5.18;2.50;;;5.00;99.90;;;;;;5023712;28;20486;-59
2022/01/24 10:27:24;;;;;;;4.97;3.25;;;5.10;99.90;;;;;;5028594;28;20458;-61
2022/01/24 10:30:07;;;;;;;6.72;3.30;;;5.20;99.90;;;;;;5029282;28;20033;-61
2022/01/24 10:32:42;;;;;;;3.63;2.08;;;5.10;99.90;;;;;;5028561;28;20104;-58
2022/01/24 10:35:27;;;;;;;1.77;1.33;;;5.20;99.90;;;;;;5020886;28;20040;-60
2022/01/24 10:38:16;;;;;;;5.38;1.95;;;5.20;99.90;;;;;;5030226;28;20036;-60
2022/01/24 10:41:19;;;;;;;4.75;1.95;;;5.20;99.90;;;;;;5028031;28;20039;-59
2022/01/24 10:43:37;;;;;;;5.15;3.20;;;5.20;99.90;;;;;;5027968;28;20052;-57
2022/01/24 10:46:04;;;;;;;2.35;1.67;;;5.20;99.90;;;;;;5027279;28;20026;-59
2022/01/24 10:48:41;;;;;;;8.93;5.50;;;5.20;99.90;;;;;;5027943;28;20026;-58
2022/01/24 10:51:12;;;;;;;5.82;3.47;;;5.30;99.90;;;;;;5027895;28;20025;-59
2022/01/24 10:53:45;;;;;;;3.55;2.33;;;5.20;99.90;;;;;;5026483;28;20055;-59
2022/01/24 10:56:39;;;;;;;4.00;2.17;;;5.10;99.90;;;;;;5022097;28;20047;-59
2022/01/24 10:59:22;;;;;;;4.40;3.03;;;5.10;99.90;;;;;;5021368;28;20036;-59
2022/01/24 11:01:57;;;;;;;3.20;1.73;;;5.10;99.90;;;;;;5015477;28;20526;-59
2022/01/24 11:04:24;;;;;;;4.95;2.72;;;5.10;99.90;;;;;;5031006;28;20268;-59
2022/01/24 11:06:56;;;;;;;4.88;1.90;;;5.10;99.90;;;;;;5029289;28;20022;-60
2022/01/24 11:09:28;;;;;;;7.07;1.70;;;5.20;99.90;;;;;;5022673;28;20491;-60
2022/01/24 11:11:56;;;;;;;6.10;3.15;;;5.20;99.90;;;;;;5025427;28;20091;-59
2022/01/24 11:14:24;;;;;;;2.05;1.40;;;5.10;99.90;;;;;;5031152;28;20013;-59
2022/01/24 11:16:51;;;;;;;4.57;1.50;;;5.10;99.90;;;;;;5036334;28;20040;-59
2022/01/24 11:19:30;;;;;;;5.07;1.63;;;5.00;99.90;;;;;;5031472;28;20029;-59
2022/01/24 11:21:58;;;;;;;3.03;1.95;;;5.00;99.90;;;;;;5024280;28;20435;-59
2022/01/24 11:24:36;;;;;;;2.60;1.52;;;4.90;99.90;;;;;;5027477;28;20028;-60
2022/01/24 11:27:01;;;;;;;1.88;1.65;;;5.00;99.90;;;;;;5014983;28;20030;-58
2022/01/24 11:29:27;;;;;;;3.20;1.45;;;5.10;99.90;;;;;;5031692;28;20032;-59
2022/01/24 11:32:02;;;;;;;8.13;4.45;;;5.10;99.90;;;;;;5029669;28;20036;-56
2022/01/24 11:34:34;;;;;;;3.83;1.75;;;5.20;99.90;;;;;;5030693;28;20394;-59
2022/01/24 11:37:01;;;;;;;1.98;1.42;;;5.20;99.90;;;;;;5028083;28;20022;-59
2022/01/24 11:39:26;;;;;;;7.55;2.72;;;5.20;99.90;;;;;;5027604;28;20030;-54
2022/01/24 11:41:53;;;;;;;3.85;2.55;;;5.20;99.90;;;;;;5028588;28;20080;-59
2022/01/24 11:44:19;;;;;;;3.95;2.20;;;5.20;99.90;;;;;;5024224;28;20029;-60
2022/01/24 11:46:58;;;;;;;3.65;2.15;;;5.30;99.90;;;;;;5026461;28;20030;-59
2022/01/24 11:49:32;;;;;;;5.03;3.42;;;5.40;99.90;;;;;;5023007;28;20029;-59
2022/01/24 11:52:03;;;;;;;5.80;1.77;;;5.40;99.90;;;;;;5028478;28;20022;-60
2022/01/24 11:54:32;;;;;;;3.00;1.38;;;5.40;99.90;;;;;;5030697;28;20140;-60
2022/01/24 11:57:27;;;;;;;3.80;2.50;;;5.50;99.90;;;;;;5026634;28;20021;-60
2022/01/24 12:00:20;;;;;;;1.92;1.35;;;5.60;99.90;;;;;;5015644;28;20053;-60
2022/01/24 12:02:54;;;;;;;2.05;1.33;;;5.60;99.90;;;;;;5028246;28;20140;-60
2022/01/24 12:05:25;;;;;;;2.78;2.03;;;5.70;99.90;;;;;;5028314;28;20112;-60
2022/01/24 12:07:55;;;;;;;2.92;1.70;;;5.70;99.90;;;;;;5036353;28;20017;-60
2022/01/24 12:10:21;;;;;;;1.95;1.45;;;5.70;99.90;;;;;;5014422;28;20035;-60
2022/01/24 12:12:59;;;;;;;2.15;1.48;;;5.70;99.90;;;;;;5025509;28;20489;-60
2022/01/24 12:15:36;;;;;;;7.28;3.83;;;5.70;99.90;;;;;;5030360;28;20394;-60
2022/01/24 12:18:04;;;;;;;48.28;27.63;;;5.50;99.90;;;;;;5029552;28;20573;-59
2022/01/24 12:20:33;;;;;;;4.80;3.38;;;5.50;99.90;;;;;;5021818;28;20514;-61
2022/01/24 12:23:20;;;;;;;5.03;2.38;;;5.50;99.90;;;;;;5020157;28;20036;-61
2022/01/24 12:25:57;;;;;;;5.18;3.00;;;5.60;99.90;;;;;;5011320;28;20068;-62
2022/01/24 12:28:31;;;;;;;5.30;2.63;;;5.60;99.90;;;;;;5022200;28;20029;-60
2022/01/24 12:31:03;;;;;;;;;;;5.50;99.90;;;;;;5021083;28;20041;-60
2022/01/24 12:33:36;;;;;;;5.25;3.60;;;5.50;99.90;;;;;;5018471;28;20375;-62
2022/01/24 12:36:04;;;;;;;4.03;2.20;;;5.40;99.90;;;;;;5017459;28;20030;-62
2022/01/24 12:38:50;;;;;;;1.98;1.27;;;5.50;99.90;;;;;;5021842;28;20044;-61
2022/01/24 12:41:33;;;;;;;1.55;1.20;;;5.50;99.90;;;;;;5020538;28;20033;-61
2022/01/24 12:46:27;;;;;;;4.10;1.67;;;5.50;99.90;;;;;;5017325;28;20084;-62
2022/01/24 12:48:57;;;;;;;2.95;1.50;;;5.50;99.90;;;;;;5018343;28;20116;-62
2022/01/24 12:51:24;;;;;;;1.88;1.40;;;5.40;99.90;;;;;;5014694;28;20080;-62
2022/01/24 12:53:51;;;;;;;4.28;1.45;;;5.50;99.90;;;;;;5026594;28;20026;-62
2022/01/24 12:56:18;;;;;;;5.90;1.85;;;5.60;99.90;;;;;;5027228;28;20038;-62
2022/01/24 12:58:49;;;;;;;4.35;1.83;;;5.60;99.90;;;;;;5025985;28;20109;-62
2022/01/24 13:01:27;;;;;;;1.92;1.45;;;5.60;99.90;;;;;;5011543;28;20531;-61
2022/01/24 13:03:58;;;;;;;5.15;1.98;;;5.60;99.90;;;;;;5025397;28;20054;-58
2022/01/24 13:06:26;;;;;;;2.42;1.33;;;5.60;99.90;;;;;;5014488;28;20025;-59
2022/01/24 13:09:02;;;;;;;3.28;1.73;;;5.70;99.90;;;;;;5016592;28;20030;-61
2022/01/24 13:11:29;;;;;;;4.15;2.08;;;5.70;99.90;;;;;;5020153;28;20029;-61
2022/01/24 13:14:13;;;;;;;4.45;2.05;;;5.80;99.90;;;;;;5019585;28;20456;-61
2022/01/24 13:22:26;;;;;;;2.67;1.45;;;5.80;99.90;;;;;;5027156;28;19959;-61
2022/01/24 13:25:13;;;;;;;6.28;1.63;;;5.70;99.90;;;;;;5024786;28;20037;-61
2022/01/24 13:27:47;;;;;;;1.50;1.27;;;5.50;99.90;;;;;;5030579;28;20038;-61
2022/01/24 13:30:16;;;;;;;15.75;6.15;;;5.50;99.90;;;;;;5028789;28;20111;-61
2022/01/24 13:32:50;;;;;;;2.58;1.40;;;5.50;99.90;;;;;;5029561;28;20433;-61
2022/01/24 13:35:20;;;;;;;2.17;1.63;;;5.50;99.90;;;;;;5029854;28;20045;-61
2022/01/24 13:37:46;;;;;;;5.90;1.60;;;5.50;99.90;;;;;;5026453;28;20451;-62
2022/01/24 13:40:13;;;;;;;3.10;1.90;;;5.50;99.90;;;;;;5023155;28;20117;-60
2022/01/24 13:42:39;;;;;;;4.07;1.30;;;5.40;99.90;;;;;;5027143;28;20422;-61
2022/01/24 13:45:07;;;;;;;3.15;1.95;;;5.40;99.90;;;;;;5029548;28;20509;-59
2022/01/24 13:47:33;;;;;;;9.05;4.75;;;5.40;99.90;;;;;;5028275;28;20029;-62
2022/01/24 13:49:59;;;;;;;6.78;2.45;;;5.40;99.90;;;;;;5029229;28;20029;-62
2022/01/24 13:52:27;;;;;;;4.28;2.60;;;5.30;99.90;;;;;;5030635;28;20120;-59
2022/01/24 13:54:53;;;;;;;5.22;1.88;;;5.30;99.90;;;;;;5028724;28;20513;-60
2022/01/24 13:57:20;;;;;;;4.15;3.03;;;5.40;99.90;;;;;;5028823;28;20038;-61
2022/01/24 13:59:45;;;;;;;3.67;2.72;;;5.30;99.90;;;;;;5028247;28;20049;-60
2022/01/24 14:02:16;;;;;;;2.88;1.42;;;5.30;99.90;;;;;;5011889;28;20080;-59
2022/01/24 14:04:49;;;;;;;3.08;1.90;;;5.30;99.90;;;;;;5025362;28;20475;-60
2022/01/24 14:07:16;;;;;;;1.75;1.50;;;5.30;99.90;;;;;;5027613;28;20605;-61
2022/01/24 14:09:55;;;;;;;4.32;2.22;;;5.30;99.90;;;;;;5028095;28;20040;-61
2022/01/24 14:12:29;;;;;;;68.65;31.75;;;5.30;99.90;;;;;;5029147;28;20025;-61
2022/01/24 14:15:39;;;;;;;58.70;27.05;;;5.20;99.90;;;;;;5025712;28;20037;-60
2022/01/24 14:20:44;;;;;;;8.25;3.25;;;5.30;99.90;;;;;;5027893;28;20543;-59
2022/01/24 14:23:38;;;;;;;6.55;2.75;;;5.30;99.90;;;;;;5030570;28;20398;-59
2022/01/24 14:26:15;;;;;;;5.68;3.75;;;5.30;99.90;;;;;;5028116;28;20029;-60
2022/01/24 14:28:40;;;;;;;2.80;1.67;;;5.30;99.90;;;;;;5018654;28;20061;-60
2022/01/24 14:31:13;;;;;;;2.22;1.42;;;5.20;99.90;;;;;;5019681;28;20064;-60
2022/01/24 14:33:40;;;;;;;8.77;5.68;;;5.10;99.90;;;;;;5027431;28;20040;-59
2022/01/24 14:36:17;;;;;;;5.50;3.83;;;5.20;99.90;;;;;;5030032;28;20546;-61
2022/01/24 14:38:57;;;;;;;4.88;2.05;;;5.10;99.90;;;;;;5030947;28;20483;-60
2022/01/24 14:41:56;;;;;;;4.55;1.98;;;5.10;99.90;;;;;;5031637;28;20034;-62
2022/01/24 14:47:06;;;;;;;1.95;1.33;;;5.20;99.90;;;;;;5032158;28;20136;-62
2022/01/24 14:49:35;;;;;;;2.15;1.23;;;5.20;99.90;;;;;;5033047;28;20057;-61
2022/01/24 14:52:05;;;;;;;3.92;1.70;;;5.10;99.90;;;;;;5028298;28;20042;-60
2022/01/24 14:54:34;;;;;;;5.57;2.60;;;5.10;99.90;;;;;;5019588;28;20067;-61
2022/01/24 14:57:02;;;;;;;9.43;4.57;;;5.10;99.90;;;;;;5020356;28;20041;-61
2022/01/24 14:59:28;;;;;;;4.82;2.60;;;5.10;99.90;;;;;;5022428;28;20038;-62